createdAt,value
2023-05-01T00:00:18.144Z,29.1083
2023-05-01T00:01:20.714Z,31.0538
2023-05-01T00:02:22.937Z,29.8250
2023-05-01T00:03:25.385Z,29.3462
2023-05-01T00:04:27.514Z,30.2500
2023-05-01T00:05:29.851Z,27.0769
2023-05-01T00:06:32.260Z,27.4538
2023-05-01T00:07:34.556Z,27.7846
2023-05-01T00:08:36.871Z,27.4000
2023-05-01T00:09:39.238Z,27.7692
2023-05-01T00:10:41.574Z,26.5308
2023-05-01T00:11:43.899Z,29.5692
2023-05-01T00:12:46.384Z,30.2538
2023-05-01T00:13:48.588Z,27.2769
2023-05-01T00:14:50.909Z,28.3154
2023-05-01T00:15:53.427Z,30.1154
2023-05-01T00:16:55.773Z,30.8500
2023-05-01T00:17:57.950Z,28.7231
2023-05-01T00:19:00.266Z,27.0923
2023-05-01T00:20:02.618Z,27.1000
2023-05-01T00:21:04.948Z,28.6000
2023-05-01T00:22:07.326Z,30.5538
2023-05-01T00:23:10.231Z,29.4083
2023-05-01T00:24:11.995Z,30.4083
2023-05-01T00:25:14.309Z,31.3308
2023-05-01T00:26:16.651Z,31.4000
2023-05-01T00:27:19.195Z,30.9154
2023-05-01T00:28:21.339Z,30.2167
2023-05-01T00:29:23.711Z,31.0462
2023-05-01T00:30:26.026Z,30.4769
2023-05-01T00:31:29.877Z,30.2333
2023-05-01T00:32:30.719Z,27.4583
2023-05-01T00:33:33.784Z,28.1077
2023-05-01T00:34:35.404Z,29.4833
2023-05-01T00:35:37.760Z,29.2000
2023-05-01T00:36:40.068Z,28.5462
2023-05-01T00:37:42.736Z,28.9000
2023-05-01T00:38:44.725Z,32.6333
2023-05-01T00:39:47.160Z,28.5615
2023-05-01T00:40:49.426Z,27.9308
2023-05-01T00:41:52.272Z,30.0462
2023-05-01T00:42:54.121Z,32.6667
2023-05-01T00:43:56.418Z,31.8000
2023-05-01T00:44:58.759Z,29.0417
2023-05-01T00:46:01.149Z,31.3923
2023-05-01T00:47:03.511Z,32.2833
2023-05-01T00:48:07.712Z,31.8231
2023-05-01T00:49:08.116Z,31.3583
2023-05-01T00:50:10.455Z,31.0077
2023-05-01T00:51:12.793Z,32.4692
2023-05-01T00:52:15.193Z,32.2615
2023-05-01T00:53:17.631Z,32.1154
2023-05-01T00:54:19.790Z,33.5833
2023-05-01T00:55:22.153Z,34.2833
2023-05-01T00:56:24.469Z,33.3769
2023-05-01T00:57:26.820Z,35.1077
2023-05-01T00:58:29.144Z,32.6231
2023-05-01T00:59:31.768Z,33.4000
2023-05-01T01:00:34.493Z,32.1750
2023-05-01T01:01:36.180Z,32.5500
2023-05-01T01:02:38.629Z,35.7077
2023-05-01T01:03:40.827Z,33.9231
2023-05-01T01:04:43.168Z,35.1000
2023-05-01T01:05:45.534Z,34.7231
2023-05-01T01:06:48.367Z,34.6538
2023-05-01T01:07:50.174Z,33.1833
2023-05-01T01:08:52.561Z,34.7846
2023-05-01T01:09:55.129Z,33.0615
2023-05-01T01:10:57.221Z,32.9167
2023-05-01T01:11:59.569Z,33.9923
2023-05-01T01:13:01.901Z,33.7923
2023-05-01T01:14:04.279Z,32.4154
2023-05-01T01:15:06.747Z,35.6692
2023-05-01T01:16:08.986Z,34.5833
2023-05-01T01:17:11.433Z,34.6846
2023-05-01T01:18:13.617Z,35.0583
2023-05-01T01:19:15.973Z,35.0667
2023-05-01T01:20:18.206Z,34.0545
2023-05-01T01:21:20.564Z,32.8538
2023-05-01T01:22:23.107Z,34.8154
2023-05-01T01:23:25.331Z,34.8750
2023-05-01T01:24:27.576Z,33.7308
2023-05-01T01:25:29.900Z,32.4385
2023-05-01T01:26:32.332Z,35.2231
2023-05-01T01:27:34.655Z,33.1545
2023-05-01T01:28:36.938Z,32.5154
2023-05-01T01:29:39.256Z,32.4231
2023-05-01T01:30:41.633Z,31.0692
2023-05-01T01:31:44.055Z,32.5385
2023-05-01T01:32:46.367Z,34.5083
2023-05-01T01:33:48.563Z,35.3000
2023-05-01T01:34:50.949Z,35.2385
2023-05-01T01:35:53.271Z,34.6000
2023-05-01T01:36:55.674Z,34.3083
2023-05-01T01:37:57.923Z,35.8154
2023-05-01T01:39:00.277Z,34.3462
2023-05-01T01:40:02.686Z,33.2692
2023-05-01T01:41:04.950Z,32.7231
2023-05-01T01:42:07.280Z,32.1308
2023-05-01T01:43:09.810Z,33.0923
2023-05-01T01:44:12.010Z,32.9417
2023-05-01T01:45:14.316Z,31.9615
2023-05-01T01:46:16.629Z,32.0462
2023-05-01T01:47:18.986Z,32.6385
2023-05-01T01:48:21.290Z,31.5462
2023-05-01T01:49:23.735Z,35.0308
2023-05-01T01:50:26.091Z,34.9077
2023-05-01T01:51:28.490Z,34.2231
2023-05-01T01:52:30.699Z,35.1417
2023-05-01T01:53:32.974Z,36.4385
2023-05-01T01:54:35.352Z,34.6385
2023-05-01T01:55:37.671Z,36.5000
2023-05-01T01:56:39.954Z,34.9615
2023-05-01T01:57:42.349Z,34.8000
2023-05-01T01:58:44.654Z,32.6308
2023-05-01T01:59:47.003Z,34.5000
2023-05-01T02:00:49.402Z,34.8538
2023-05-01T02:01:51.889Z,33.0231
2023-05-01T02:02:54.112Z,34.0833
2023-05-01T02:03:56.630Z,34.8308
2023-05-01T02:04:58.768Z,36.7417
2023-05-01T02:06:01.100Z,34.6462
2023-05-01T02:07:03.494Z,36.7385
2023-05-01T02:08:05.705Z,35.5083
2023-05-01T02:09:08.039Z,34.7846
2023-05-01T02:10:10.596Z,33.7077
2023-05-01T02:11:12.823Z,37.1636
2023-05-01T02:12:15.026Z,34.6083
2023-05-01T02:13:17.476Z,33.4846
2023-05-01T02:14:19.667Z,32.8846
2023-05-01T02:15:22.077Z,33.4000
2023-05-01T02:16:24.678Z,35.5000
2023-05-01T02:17:26.812Z,34.5333
2023-05-01T02:18:29.097Z,34.0385
2023-05-01T02:19:31.394Z,34.7000
2023-05-01T02:20:33.952Z,33.9308
2023-05-01T02:21:36.070Z,34.6417
2023-05-01T02:22:38.998Z,33.7462
2023-05-01T02:23:41.198Z,34.5000
2023-05-01T02:24:43.094Z,35.4750
2023-05-01T02:25:45.368Z,30.7538
2023-05-01T02:26:47.938Z,34.3462
2023-05-01T02:27:50.063Z,31.3667
2023-05-01T02:28:52.504Z,32.9846
2023-05-01T02:29:55.440Z,33.1000
2023-05-01T02:30:57.169Z,30.2091
2023-05-01T02:31:59.565Z,35.3667
2023-05-01T02:33:01.970Z,34.4308
2023-05-01T02:34:04.160Z,32.9583
2023-05-01T02:35:06.598Z,32.3417
2023-05-01T02:36:08.857Z,31.0077
2023-05-01T02:37:11.332Z,33.9000
2023-05-01T02:38:13.508Z,33.2455
2023-05-01T02:39:15.969Z,33.2538
2023-05-01T02:40:18.217Z,33.8923
2023-05-01T02:41:20.518Z,32.9462
2023-05-01T02:42:22.915Z,34.5417
2023-05-01T02:43:25.466Z,33.5769
2023-05-01T02:44:27.570Z,33.6500
2023-05-01T02:45:29.989Z,33.7231
2023-05-01T02:46:32.213Z,34.4923
2023-05-01T02:47:34.618Z,34.4231
2023-05-01T02:48:36.904Z,33.3000
2023-05-01T02:49:39.233Z,33.2769
2023-05-01T02:50:41.645Z,32.7000
2023-05-01T02:51:43.963Z,31.6538
2023-05-01T02:52:46.240Z,32.1077
2023-05-01T02:53:48.585Z,31.5231
2023-05-01T02:54:50.972Z,31.2923
2023-05-01T02:55:53.264Z,30.3231
2023-05-01T02:56:55.606Z,31.6923
2023-05-01T02:57:57.932Z,30.1923
2023-05-01T02:59:00.508Z,31.5692
2023-05-01T03:00:02.686Z,30.6583
2023-05-01T03:01:04.988Z,31.1846
2023-05-01T03:02:07.284Z,32.0846
2023-05-01T03:03:09.700Z,28.7154
2023-05-01T03:04:12.029Z,31.6308
2023-05-01T03:05:14.307Z,33.4154
2023-05-01T03:06:16.759Z,34.0417
2023-05-01T03:07:18.995Z,33.1462
2023-05-01T03:08:21.325Z,33.9692
2023-05-01T03:09:23.682Z,32.8000
2023-05-01T03:10:26.027Z,33.6308
2023-05-01T03:11:28.473Z,33.4077
2023-05-01T03:12:30.744Z,32.8154
2023-05-01T03:13:33.031Z,33.8077
2023-05-01T03:14:35.371Z,33.8917
2023-05-01T03:15:37.721Z,33.1154
2023-05-01T03:16:40.140Z,33.8462
2023-05-01T03:17:42.467Z,32.7250
2023-05-01T03:18:44.719Z,31.6667
2023-05-01T03:19:47.124Z,31.4846
2023-05-01T03:20:49.395Z,33.0615
2023-05-01T03:21:51.755Z,32.5846
2023-05-01T03:22:54.092Z,34.2615
2023-05-01T03:23:56.414Z,33.1917
2023-05-01T03:24:58.757Z,30.8385
2023-05-01T03:26:01.099Z,30.3769
2023-05-01T03:27:03.458Z,30.0538
2023-05-01T03:28:05.763Z,33.0308
2023-05-01T03:29:08.109Z,35.4000
2023-05-01T03:30:10.431Z,35.0077
2023-05-01T03:31:12.774Z,35.1538
2023-05-01T03:32:15.248Z,33.7615
2023-05-01T03:33:17.516Z,33.8250
2023-05-01T03:34:19.758Z,34.8692
2023-05-01T03:35:22.138Z,34.5917
2023-05-01T03:36:24.437Z,34.6923
2023-05-01T03:37:26.801Z,34.5385
2023-05-01T03:38:29.130Z,35.2231
2023-05-01T03:39:31.454Z,32.0917
2023-05-01T03:40:33.794Z,32.3231
2023-05-01T03:41:36.125Z,32.4154
2023-05-01T03:42:38.489Z,33.9917
2023-05-01T03:43:40.807Z,32.4692
2023-05-01T03:44:43.140Z,33.2846
2023-05-01T03:45:45.513Z,35.6769
2023-05-01T03:46:47.837Z,34.7846
2023-05-01T03:47:50.220Z,34.3615
2023-05-01T03:48:52.502Z,34.6333
2023-05-01T03:49:54.920Z,36.0500
2023-05-01T03:50:57.193Z,36.0769
2023-05-01T03:51:59.495Z,35.2077
2023-05-01T03:53:01.923Z,35.4538
2023-05-01T03:54:04.210Z,35.7818
2023-05-01T03:55:06.518Z,36.1308
2023-05-01T03:56:08.868Z,33.5769
2023-05-01T03:57:11.201Z,39.0615
2023-05-01T03:58:13.552Z,34.8615
2023-05-01T03:59:15.928Z,35.1917
2023-05-01T04:00:18.230Z,34.0692
2023-05-01T04:01:20.551Z,34.6538
2023-05-01T04:02:22.986Z,34.3923
2023-05-01T04:03:25.382Z,31.5833
2023-05-01T04:04:27.589Z,32.3385
2023-05-01T04:05:29.912Z,33.5846
2023-05-01T04:06:32.386Z,34.6231
2023-05-01T04:07:34.587Z,35.3154
2023-05-01T04:08:36.958Z,33.6308
2023-05-01T04:09:39.254Z,33.8917
2023-05-01T04:10:41.675Z,35.4923
2023-05-01T04:11:43.939Z,33.2231
2023-05-01T04:12:46.272Z,33.5769
2023-05-01T04:13:48.608Z,36.3692
2023-05-01T04:14:50.942Z,35.8154
2023-05-01T04:15:53.332Z,35.3154
2023-05-01T04:16:55.623Z,36.7167
2023-05-01T04:17:58.030Z,37.1615
2023-05-01T04:19:00.297Z,36.2000
2023-05-01T04:20:02.639Z,35.1077
2023-05-01T04:21:04.982Z,35.9769
2023-05-01T04:22:07.315Z,34.1154
2023-05-01T04:23:09.690Z,36.2923
2023-05-01T04:24:11.991Z,36.7077
2023-05-01T04:25:14.383Z,34.6615
2023-05-01T04:26:16.671Z,36.1923
2023-05-01T04:27:19.032Z,34.2769
2023-05-01T04:28:21.361Z,36.8538
2023-05-01T04:29:24.613Z,36.7692
2023-05-01T04:30:26.103Z,35.6333
2023-05-01T04:31:28.512Z,36.4846
2023-05-01T04:32:30.745Z,36.8000
2023-05-01T04:33:33.021Z,36.9923
2023-05-01T04:34:35.418Z,35.2923
2023-05-01T04:35:37.724Z,35.2923
2023-05-01T04:36:40.198Z,35.6000
2023-05-01T04:37:42.371Z,36.4250
2023-05-01T04:38:44.675Z,35.6000
2023-05-01T04:39:47.023Z,35.2385
2023-05-01T04:40:49.495Z,36.7308
2023-05-01T04:41:51.737Z,37.1692
2023-05-01T04:42:54.022Z,35.3077
2023-05-01T04:43:56.367Z,34.0538
2023-05-01T04:44:58.708Z,34.2923
2023-05-01T04:46:01.063Z,33.3385
2023-05-01T04:47:03.469Z,33.2077
2023-05-01T04:48:05.791Z,32.5750
2023-05-01T04:49:08.060Z,31.5615
2023-05-01T04:50:10.415Z,34.1000
2023-05-01T04:51:12.721Z,34.3462
2023-05-01T04:52:15.112Z,37.0077
2023-05-01T04:53:17.525Z,33.7846
2023-05-01T04:54:19.736Z,31.9000
2023-05-01T04:55:22.175Z,34.9231
2023-05-01T04:56:24.411Z,35.2818
2023-05-01T04:57:26.754Z,34.8154
2023-05-01T04:58:29.158Z,36.1154
2023-05-01T04:59:31.553Z,37.3000
2023-05-01T05:00:33.885Z,36.0231
2023-05-01T05:01:36.177Z,37.5077
2023-05-01T05:02:38.608Z,36.9750
2023-05-01T05:03:40.876Z,35.6538
2023-05-01T05:04:43.144Z,34.8385
2023-05-01T05:05:45.603Z,35.8538
2023-05-01T05:06:47.894Z,36.1769
2023-05-01T05:07:50.155Z,34.9231
2023-05-01T05:08:52.479Z,36.2154
2023-05-01T05:09:55.058Z,36.6462
2023-05-01T05:10:57.871Z,36.7750
2023-05-01T05:11:59.678Z,36.7818
2023-05-01T05:13:01.858Z,35.1417
2023-05-01T05:14:04.272Z,34.2000
2023-05-01T05:15:06.667Z,33.1769
2023-05-01T05:16:08.976Z,32.8250
2023-05-01T05:17:11.380Z,32.5000
2023-05-01T05:18:13.642Z,32.7167
2023-05-01T05:19:15.852Z,33.5769
2023-05-01T05:20:18.257Z,34.5923
2023-05-01T05:21:20.581Z,35.0000
2023-05-01T05:22:22.866Z,33.7462
2023-05-01T05:23:25.229Z,34.2923
2023-05-01T05:24:27.588Z,35.5231
2023-05-01T05:25:29.882Z,34.4769
2023-05-01T05:26:32.257Z,35.0615
2023-05-01T05:27:34.628Z,35.8538
2023-05-01T05:28:36.911Z,34.7692
2023-05-01T05:29:39.346Z,35.4417
2023-05-01T05:30:41.561Z,35.5692
2023-05-01T05:31:43.950Z,35.9538
2023-05-01T05:32:46.296Z,36.6769
2023-05-01T05:33:48.666Z,36.7000
2023-05-01T05:34:51.125Z,34.8000
2023-05-01T05:35:53.244Z,36.7083
2023-05-01T05:36:55.716Z,36.8308
2023-05-01T05:37:57.965Z,36.3231
2023-05-01T05:39:00.337Z,33.9154
2023-05-01T05:40:02.623Z,35.0615
2023-05-01T05:41:04.950Z,37.2692
2023-05-01T05:42:07.298Z,35.4154
2023-05-01T05:43:09.674Z,36.9000
2023-05-01T05:44:12.167Z,36.2231
2023-05-01T05:45:14.468Z,37.0500
2023-05-01T05:46:16.795Z,36.8500
2023-05-01T05:47:19.161Z,35.5923
2023-05-01T05:48:21.505Z,32.5923
2023-05-01T05:49:23.732Z,34.2333
2023-05-01T05:50:26.059Z,36.4500
2023-05-01T05:51:28.560Z,35.3231
2023-05-01T05:52:30.685Z,35.6417
2023-05-01T05:53:33.061Z,35.7308
2023-05-01T05:54:35.376Z,36.3231
2023-05-01T05:55:37.723Z,35.0846
2023-05-01T05:56:40.050Z,34.3308
2023-05-01T05:57:42.515Z,35.9462
2023-05-01T05:58:44.733Z,35.9769
2023-05-01T05:59:47.067Z,33.0000
2023-05-01T06:00:49.434Z,36.3846
2023-05-01T06:01:51.753Z,36.8692
2023-05-01T06:02:54.142Z,34.8615
2023-05-01T06:03:56.562Z,35.0769
2023-05-01T06:04:58.783Z,34.0692
2023-05-01T06:06:01.462Z,32.9231
2023-05-01T06:07:03.481Z,33.9083
2023-05-01T06:08:05.818Z,33.2462
2023-05-01T06:09:08.131Z,35.4692
2023-05-01T06:10:10.467Z,34.6000
2023-05-01T06:11:12.857Z,35.7077
2023-05-01T06:12:15.170Z,34.4615
2023-05-01T06:13:17.526Z,34.5500
2023-05-01T06:14:19.851Z,34.1769
2023-05-01T06:15:22.356Z,33.9077
2023-05-01T06:16:24.614Z,35.4417
2023-05-01T06:17:26.871Z,35.9231
2023-05-01T06:18:29.182Z,35.6154
2023-05-01T06:19:31.569Z,38.5923
2023-05-01T06:20:33.863Z,35.7154
2023-05-01T06:21:36.358Z,35.2692
2023-05-01T06:22:38.582Z,35.1833
2023-05-01T06:23:40.873Z,36.2154
2023-05-01T06:24:43.220Z,36.4692
2023-05-01T06:25:45.568Z,35.1308
2023-05-01T06:26:47.898Z,34.7769
2023-05-01T06:27:50.375Z,35.0308
2023-05-01T06:28:52.598Z,37.3692
2023-05-01T06:29:55.144Z,35.2385
2023-05-01T06:30:57.254Z,35.6333
2023-05-01T06:31:59.797Z,36.2692
2023-05-01T06:33:01.941Z,32.7667
2023-05-01T06:34:04.266Z,36.9538
2023-05-01T06:35:06.682Z,36.3692
2023-05-01T06:36:09.233Z,37.2000
2023-05-01T06:37:11.358Z,36.0417
2023-05-01T06:38:13.832Z,36.8750
2023-05-01T06:39:16.014Z,34.8538
2023-05-01T06:40:18.461Z,35.4077
2023-05-01T06:41:20.775Z,34.4462
2023-05-01T06:42:23.211Z,36.5769
2023-05-01T06:43:25.387Z,36.0167
2023-05-01T06:44:27.724Z,37.3077
2023-05-01T06:45:30.156Z,35.4846
2023-05-01T06:46:32.442Z,36.0615
2023-05-01T06:47:34.916Z,35.2462
2023-05-01T06:48:37.271Z,34.3077
2023-05-01T06:49:39.503Z,34.0500
2023-05-01T06:50:41.752Z,34.8538
2023-05-01T06:51:44.145Z,35.3769
2023-05-01T06:52:46.419Z,33.6308
2023-05-01T06:53:48.834Z,32.4462
2023-05-01T06:54:51.099Z,34.8583
2023-05-01T06:55:53.426Z,36.1846
2023-05-01T06:56:55.968Z,35.6231
2023-05-01T06:57:59.757Z,35.5077
2023-05-01T06:59:00.467Z,36.1250
2023-05-01T07:00:02.844Z,34.5692
2023-05-01T07:01:05.152Z,35.3308
2023-05-01T07:02:07.548Z,35.0077
2023-05-01T07:03:09.886Z,31.6538
2023-05-01T07:04:12.298Z,34.8846
2023-05-01T07:05:14.515Z,38.1364
2023-05-01T07:06:16.936Z,36.3154
2023-05-01T07:07:19.159Z,35.9538
2023-05-01T07:08:21.534Z,34.2308
2023-05-01T07:09:23.872Z,35.6615
2023-05-01T07:10:26.238Z,33.7923
2023-05-01T07:11:28.552Z,34.4923
2023-05-01T07:12:30.845Z,34.3769
2023-05-01T07:13:33.215Z,33.9462
2023-05-01T07:14:35.586Z,33.6692
2023-05-01T07:15:37.867Z,32.5692
2023-05-01T07:16:40.328Z,30.9846
2023-05-01T07:17:42.567Z,31.8000
2023-05-01T07:18:44.956Z,31.5154
2023-05-01T07:19:47.250Z,32.8462
2023-05-01T07:20:49.601Z,33.4308
2023-05-01T07:21:51.879Z,33.1308
2023-05-01T07:22:54.245Z,33.1923
2023-05-01T07:23:56.585Z,32.5615
2023-05-01T07:24:58.933Z,32.3923
2023-05-01T07:26:01.255Z,34.7923
2023-05-01T07:27:03.594Z,30.6083
2023-05-01T07:28:05.906Z,32.4615
2023-05-01T07:29:08.243Z,31.6462
2023-05-01T07:30:10.580Z,33.0250
2023-05-01T07:31:12.933Z,31.3615
2023-05-01T07:32:15.345Z,30.9846
2023-05-01T07:33:17.644Z,28.6615
2023-05-01T07:34:19.969Z,29.8333
2023-05-01T07:35:22.264Z,32.2077
2023-05-01T07:36:24.730Z,34.0417
2023-05-01T07:37:27.011Z,31.6538
2023-05-01T07:38:29.247Z,32.5615
2023-05-01T07:39:31.575Z,31.3692
2023-05-01T07:40:33.923Z,31.8615
2023-05-01T07:41:36.272Z,33.0308
2023-05-01T07:42:38.596Z,31.6923
2023-05-01T07:43:40.917Z,31.2154
2023-05-01T07:44:43.256Z,32.0000
2023-05-01T07:45:45.717Z,32.2385
2023-05-01T07:46:47.929Z,31.7538
2023-05-01T07:47:50.348Z,31.3846
2023-05-01T07:48:52.613Z,32.0154
2023-05-01T07:49:55.334Z,33.0846
2023-05-01T07:50:57.367Z,33.2167
2023-05-01T07:51:59.618Z,32.0154
2023-05-01T07:53:02.156Z,29.4231
2023-05-01T07:54:04.395Z,29.3417
2023-05-01T07:55:06.620Z,33.0333
2023-05-01T07:56:09.078Z,33.9000
2023-05-01T07:57:11.297Z,33.1154
2023-05-01T07:58:13.678Z,33.4077
2023-05-01T07:59:15.968Z,35.0083
2023-05-01T08:00:18.303Z,32.6833
2023-05-01T08:01:20.643Z,32.4077
2023-05-01T08:02:23.183Z,32.1615
2023-05-01T08:03:25.494Z,33.2333
2023-05-01T08:04:27.662Z,32.0692
2023-05-01T08:05:30.035Z,32.6154
2023-05-01T08:06:32.402Z,29.9462
2023-05-01T08:07:34.660Z,33.0769
2023-05-01T08:08:37.037Z,31.3231
2023-05-01T08:09:39.332Z,30.8615
2023-05-01T08:10:41.675Z,31.6385
2023-05-01T08:11:44.007Z,33.2462
2023-05-01T08:12:46.405Z,31.8000
2023-05-01T08:13:48.689Z,34.6385
2023-05-01T08:14:51.021Z,34.8462
2023-05-01T08:15:53.381Z,32.0692
2023-05-01T08:16:55.726Z,30.7769
2023-05-01T08:17:58.075Z,29.7769
2023-05-01T08:19:00.420Z,28.8308
2023-05-01T08:20:02.716Z,32.2923
2023-05-01T08:21:05.110Z,30.4000
2023-05-01T08:22:07.412Z,31.8615
2023-05-01T08:23:09.730Z,30.4923
2023-05-01T08:24:12.069Z,31.1769
2023-05-01T08:25:14.391Z,31.8769
2023-05-01T08:26:16.730Z,31.4923
2023-05-01T08:27:19.068Z,29.4154
2023-05-01T08:28:21.524Z,28.3077
2023-05-01T08:29:23.763Z,27.7231
2023-05-01T08:30:26.125Z,28.9667
2023-05-01T08:31:28.474Z,29.0923
2023-05-01T08:32:30.796Z,28.0692
2023-05-01T08:33:33.074Z,28.4385
2023-05-01T08:34:35.422Z,27.1615
2023-05-01T08:35:37.898Z,27.0923
2023-05-01T08:36:40.237Z,26.5385
2023-05-01T08:37:42.453Z,25.9615
2023-05-01T08:38:44.749Z,26.7846
2023-05-01T08:39:47.102Z,26.6462
2023-05-01T08:40:49.420Z,26.4077
2023-05-01T08:41:51.748Z,26.6846
2023-05-01T08:42:54.108Z,28.0923
2023-05-01T08:43:56.421Z,25.8083
2023-05-01T08:44:58.772Z,26.3308
2023-05-01T08:46:01.111Z,30.1538
2023-05-01T08:47:03.509Z,29.7462
2023-05-01T08:48:05.788Z,28.8692
2023-05-01T08:49:08.300Z,29.6154
2023-05-01T08:50:10.437Z,29.8500
2023-05-01T08:51:12.834Z,28.0154
2023-05-01T08:52:15.090Z,29.8846
2023-05-01T08:53:17.436Z,30.2538
2023-05-01T08:54:19.769Z,30.8692
2023-05-01T08:55:22.168Z,29.0692
2023-05-01T08:56:24.528Z,28.8769
2023-05-01T08:57:26.755Z,29.0769
2023-05-01T08:58:29.249Z,29.7923
2023-05-01T08:59:31.442Z,28.5615
2023-05-01T09:00:33.779Z,27.1833
2023-05-01T09:01:36.137Z,26.7154
2023-05-01T09:02:38.516Z,28.8000
2023-05-01T09:03:40.949Z,29.0846
2023-05-01T09:04:43.196Z,29.4385
2023-05-01T09:05:45.480Z,30.1917
2023-05-01T09:06:47.865Z,29.2615
2023-05-01T09:07:50.105Z,30.0308
2023-05-01T09:08:52.446Z,30.6385
2023-05-01T09:09:55.042Z,29.9308
2023-05-01T09:10:57.152Z,30.6250
2023-05-01T09:11:59.488Z,27.4231
2023-05-01T09:13:01.821Z,28.0308
2023-05-01T09:14:04.144Z,30.3231
2023-05-01T09:15:06.475Z,29.3923
2023-05-01T09:16:08.964Z,28.9692
2023-05-01T09:17:11.141Z,28.0538
2023-05-01T09:18:13.534Z,30.7692
2023-05-01T09:19:15.791Z,29.9583
2023-05-01T09:20:18.151Z,30.1231
2023-05-01T09:21:20.481Z,29.3615
2023-05-01T09:22:22.807Z,30.0846
2023-05-01T09:23:25.154Z,30.4231
2023-05-01T09:24:27.498Z,27.9667
2023-05-01T09:25:29.816Z,30.0500
2023-05-01T09:26:32.165Z,31.0077
2023-05-01T09:27:34.505Z,31.0538
2023-05-01T09:28:36.856Z,30.6615
2023-05-01T09:29:39.228Z,29.0385
2023-05-01T09:30:41.478Z,29.2769
2023-05-01T09:31:43.892Z,29.9538
2023-05-01T09:32:46.187Z,29.6692
2023-05-01T09:33:48.532Z,29.3615
2023-05-01T09:34:50.907Z,29.7000
2023-05-01T09:35:53.251Z,31.3538
2023-05-01T09:36:55.559Z,30.6077
2023-05-01T09:37:57.859Z,29.9077
2023-05-01T09:39:00.176Z,29.7923
2023-05-01T09:40:02.541Z,28.7692
2023-05-01T09:41:04.841Z,27.5083
2023-05-01T09:42:07.257Z,28.8250
2023-05-01T09:43:11.220Z,29.7462
2023-05-01T09:44:11.869Z,29.5750
2023-05-01T09:45:14.292Z,28.8333
2023-05-01T09:46:16.657Z,27.0846
2023-05-01T09:47:18.876Z,29.2077
2023-05-01T09:48:21.198Z,29.4308
2023-05-01T09:49:23.575Z,27.3923
2023-05-01T09:50:25.891Z,27.9308
2023-05-01T09:51:28.222Z,27.4333
2023-05-01T09:52:30.567Z,27.4615
2023-05-01T09:53:32.876Z,30.0917
2023-05-01T09:54:35.212Z,28.8846
2023-05-01T09:55:37.546Z,28.5923
2023-05-01T09:56:39.881Z,29.7250
2023-05-01T09:57:42.266Z,30.1385
2023-05-01T09:58:44.637Z,29.4692
2023-05-01T09:59:46.890Z,30.4308
2023-05-01T10:00:49.268Z,26.5538
2023-05-01T10:01:51.634Z,27.5846
2023-05-01T10:02:54.092Z,30.2538
2023-05-01T10:03:56.680Z,27.4583
2023-05-01T10:04:58.755Z,26.2667
2023-05-01T10:06:01.184Z,25.6750
2023-05-01T10:07:03.280Z,26.8333
2023-05-01T10:08:05.605Z,27.7385
2023-05-01T10:09:07.930Z,26.3923
2023-05-01T10:10:10.256Z,26.5769
2023-05-01T10:11:12.604Z,27.4846
2023-05-01T10:12:14.930Z,27.3769
2023-05-01T10:13:17.303Z,28.6385
2023-05-01T10:14:19.604Z,29.6462
2023-05-01T10:15:26.323Z,27.0846
2023-05-01T10:16:24.327Z,28.0909
2023-05-01T10:17:26.664Z,29.6769
2023-05-01T10:18:28.991Z,28.6154
2023-05-01T10:19:31.306Z,27.9846
2023-05-01T10:20:33.645Z,25.8154
2023-05-01T10:21:35.962Z,25.9167
2023-05-01T10:22:38.306Z,26.1846
2023-05-01T10:23:40.636Z,27.9333
2023-05-01T10:24:42.985Z,29.1615
2023-05-01T10:25:45.328Z,28.7000
2023-05-01T10:26:47.639Z,28.3769
2023-05-01T10:27:49.976Z,27.8154
2023-05-01T10:28:52.312Z,28.8077
2023-05-01T10:29:54.996Z,27.9385
2023-05-01T10:30:57.038Z,28.4333
2023-05-01T10:31:59.399Z,28.3923
2023-05-01T10:33:01.678Z,27.5231
2023-05-01T10:34:03.999Z,29.3538
2023-05-01T10:35:06.355Z,27.0385
2023-05-01T10:36:08.679Z,26.3692
2023-05-01T10:37:11.000Z,25.0077
2023-05-01T10:38:13.361Z,24.7308
2023-05-01T10:39:15.678Z,26.1462
2023-05-01T10:40:18.095Z,27.4846
2023-05-01T10:41:20.430Z,28.5846
2023-05-01T10:42:23.003Z,26.8385
2023-05-01T10:43:25.097Z,27.5250
2023-05-01T10:44:27.460Z,26.8692
2023-05-01T10:45:29.782Z,25.5769
2023-05-01T10:46:32.180Z,24.7462
2023-05-01T10:47:34.471Z,24.6538
2023-05-01T10:48:36.796Z,25.1154
2023-05-01T10:49:39.121Z,25.1923
2023-05-01T10:50:41.488Z,25.7692
2023-05-01T10:51:43.869Z,25.4154
2023-05-01T10:52:46.151Z,24.9000
2023-05-01T10:53:48.475Z,23.9692
2023-05-01T10:54:50.826Z,24.3846
2023-05-01T10:55:53.147Z,23.7615
2023-05-01T10:56:55.503Z,23.6615
2023-05-01T10:57:57.837Z,24.3615
2023-05-01T10:59:00.166Z,24.3769
2023-05-01T11:00:02.510Z,23.2000
2023-05-01T11:01:04.840Z,23.7846
2023-05-01T11:02:07.198Z,21.6462
2023-05-01T11:03:09.582Z,22.4462
2023-05-01T11:04:11.849Z,24.6692
2023-05-01T11:05:14.254Z,24.0231
2023-05-01T11:06:16.687Z,25.5462
2023-05-01T11:07:19.093Z,23.7583
2023-05-01T11:08:21.215Z,25.5333
2023-05-01T11:09:23.545Z,24.8385
2023-05-01T11:10:25.891Z,25.2000
2023-05-01T11:11:28.212Z,25.9615
2023-05-01T11:12:30.558Z,26.1769
2023-05-01T11:13:32.886Z,26.3385
2023-05-01T11:14:35.242Z,24.3231
2023-05-01T11:15:37.564Z,25.1500
2023-05-01T11:16:40.060Z,25.5692
2023-05-01T11:17:42.662Z,26.1000
2023-05-01T11:18:44.653Z,25.5667
2023-05-01T11:19:46.884Z,24.5833
2023-05-01T11:20:49.216Z,25.0769
2023-05-01T11:21:51.566Z,27.1923
2023-05-01T11:22:54.001Z,25.0615
2023-05-01T11:23:56.228Z,25.0692
2023-05-01T11:24:58.987Z,24.3846
2023-05-01T11:26:00.900Z,25.0417
2023-05-01T11:27:03.245Z,25.9846
2023-05-01T11:28:05.577Z,24.7385
2023-05-01T11:29:07.901Z,25.8000
2023-05-01T11:30:10.234Z,24.2231
2023-05-01T11:31:12.632Z,23.2846
2023-05-01T11:32:15.122Z,25.8308
2023-05-01T11:33:17.306Z,26.2833
2023-05-01T11:34:19.576Z,26.7385
2023-05-01T11:35:21.907Z,24.6154
2023-05-01T11:36:24.277Z,25.5692
2023-05-01T11:37:26.587Z,27.2154
2023-05-01T11:38:28.927Z,25.7077
2023-05-01T11:39:31.243Z,25.8462
2023-05-01T11:40:43.119Z,25.7462
2023-05-01T11:41:45.222Z,26.8182
2023-05-01T11:42:38.281Z,26.1818
2023-05-01T11:43:40.644Z,26.6000
2023-05-01T11:44:42.936Z,27.6846
2023-05-01T11:45:45.313Z,27.4538
2023-05-01T11:46:47.614Z,26.6308
2023-05-01T11:47:50.091Z,24.9000
2023-05-01T11:48:52.271Z,26.3154
2023-05-01T11:49:54.604Z,25.9846
2023-05-01T11:50:56.931Z,25.2769
2023-05-01T11:51:59.330Z,26.3231
2023-05-01T11:53:01.604Z,27.0462
2023-05-01T11:54:03.972Z,25.5250
2023-05-01T11:55:06.291Z,26.0769
2023-05-01T11:56:19.503Z,26.2917
2023-05-01T11:57:10.952Z,26.3818
2023-05-01T11:58:13.283Z,28.8077
2023-05-01T11:59:15.638Z,25.7000
2023-05-01T12:00:17.959Z,25.9333
2023-05-01T12:01:20.291Z,25.2692
2023-05-01T12:02:22.698Z,26.8538
2023-05-01T12:03:25.166Z,26.4583
2023-05-01T12:04:30.683Z,25.1833
2023-05-01T12:05:29.640Z,27.0167
2023-05-01T12:06:31.998Z,26.3077
2023-05-01T12:07:34.307Z,26.2154
2023-05-01T12:08:36.640Z,25.9769
2023-05-01T12:09:38.980Z,23.9333
2023-05-01T12:10:41.343Z,24.8923
2023-05-01T12:11:43.651Z,27.7846
2023-05-01T12:12:45.975Z,27.0538
2023-05-01T12:13:48.310Z,26.6231
2023-05-01T12:14:50.655Z,23.3923
2023-05-01T12:15:52.999Z,24.7923
2023-05-01T12:16:55.373Z,26.0538
2023-05-01T12:17:57.742Z,26.0462
2023-05-01T12:19:00.018Z,24.4923
2023-05-01T12:20:02.327Z,21.6154
2023-05-01T12:21:04.698Z,25.0846
2023-05-01T12:22:07.015Z,23.2846
2023-05-01T12:23:09.338Z,24.0923
2023-05-01T12:24:11.679Z,25.2385
2023-05-01T12:25:14.014Z,23.8846
2023-05-01T12:26:16.389Z,23.6615
2023-05-01T12:27:18.681Z,23.4385
2023-05-01T12:28:21.010Z,24.6692
2023-05-01T12:29:23.362Z,24.1462
2023-05-01T12:30:25.677Z,23.3000
2023-05-01T12:31:28.126Z,25.6385
2023-05-01T12:32:30.402Z,22.9538
2023-05-01T12:33:32.685Z,24.2462